createdAt,value
2022-11-26T00:05:02.424Z,7.10
2022-11-26T00:10:13.952Z,7.20
2022-11-26T00:15:21.282Z,7.20
2022-11-26T00:20:29.095Z,7.00
2022-11-26T00:25:39.591Z,7.00
2022-11-26T00:30:44.122Z,7.10
2022-11-26T00:35:49.566Z,7.10
2022-11-26T00:40:52.699Z,7.20
2022-11-26T00:45:57.373Z,7.10
2022-11-26T00:51:01.234Z,7.00
2022-11-26T00:56:04.798Z,6.90
2022-11-26T01:01:12.452Z,6.90
2022-11-26T01:06:18.325Z,6.90
2022-11-26T01:11:23.410Z,6.80
2022-11-26T01:16:30.244Z,6.90
2022-11-26T01:21:33.498Z,6.90
2022-11-26T01:26:40.219Z,6.90
2022-11-26T01:31:45.117Z,7.00
2022-11-26T01:36:48.301Z,6.80
2022-11-26T01:41:59.688Z,7.00
2022-11-26T01:47:20.114Z,7.00
2022-11-26T01:52:25.475Z,7.00
2022-11-26T01:57:29.773Z,7.00
2022-11-26T02:02:34.406Z,7.00
2022-11-26T02:07:38.793Z,7.10
2022-11-26T02:12:42.953Z,7.10
2022-11-26T02:17:52.247Z,7.10
2022-11-26T02:23:11.224Z,7.10
2022-11-26T02:28:33.441Z,7.10
2022-11-26T02:33:45.387Z,7.10
2022-11-26T02:38:48.812Z,7.20
2022-11-26T02:43:52.118Z,7.20
2022-11-26T02:48:56.761Z,7.30
2022-11-26T02:54:01.783Z,7.30
2022-11-26T02:59:05.742Z,7.40
2022-11-26T03:04:17.601Z,7.30
2022-11-26T03:09:22.817Z,7.30
2022-11-26T03:14:25.960Z,7.30
2022-11-26T03:19:30.560Z,7.30
2022-11-26T03:24:33.909Z,7.30
2022-11-26T03:29:37.127Z,7.30
2022-11-26T03:34:42.939Z,7.40
2022-11-26T03:39:46.577Z,7.40
2022-11-26T03:44:49.754Z,7.50
2022-11-26T03:49:54.480Z,7.50
2022-11-26T03:54:57.727Z,7.50
2022-11-26T04:00:00.923Z,7.60
2022-11-26T04:05:06.847Z,7.60
2022-11-26T04:10:10.758Z,7.60
2022-11-26T04:15:14.046Z,7.60
2022-11-26T04:20:19.033Z,7.60
2022-11-26T04:25:22.673Z,7.70
2022-11-26T04:30:30.020Z,7.80
2022-11-26T04:35:34.878Z,7.90
2022-11-26T04:40:38.416Z,7.80
2022-11-26T04:45:41.564Z,7.90
2022-11-26T04:50:46.087Z,7.90
2022-11-26T04:55:49.679Z,7.80
2022-11-26T05:00:53.129Z,8.00
2022-11-26T05:05:57.732Z,7.90
2022-11-26T05:11:03.050Z,7.90
2022-11-26T05:16:06.438Z,7.90
2022-11-26T05:21:11.170Z,8.00
2022-11-26T05:26:14.419Z,8.00
2022-11-26T05:31:18.653Z,8.00
2022-11-26T05:36:23.161Z,8.00
2022-11-26T05:41:26.358Z,8.00
2022-11-26T05:46:29.761Z,8.00
2022-11-26T05:51:34.419Z,8.00
2022-11-26T05:56:37.586Z,8.00
2022-11-26T06:01:40.788Z,7.80
2022-11-26T06:06:45.667Z,7.90
2022-11-26T06:11:49.253Z,7.90
2022-11-26T06:16:52.475Z,7.80
2022-11-26T06:21:56.988Z,7.90
2022-11-26T06:27:00.274Z,8.00
2022-11-26T06:32:03.820Z,7.90
2022-11-26T06:37:08.375Z,7.90
2022-11-26T06:42:11.513Z,7.90
2022-11-26T06:47:14.962Z,8.00
2022-11-26T06:52:19.465Z,8.00
2022-11-26T06:57:22.606Z,8.00
2022-11-26T07:02:25.739Z,8.00
2022-11-26T07:07:30.583Z,8.00
2022-11-26T07:12:33.788Z,8.00
2022-11-26T07:17:36.911Z,8.00
2022-11-26T07:22:41.391Z,8.00
2022-11-26T07:27:45.490Z,8.00
2022-11-26T07:32:48.591Z,8.00
2022-11-26T07:37:56.012Z,8.00
2022-11-26T07:43:00.146Z,8.00
2022-11-26T07:48:04.613Z,8.10
2022-11-26T07:53:09.064Z,8.00
2022-11-26T07:58:12.282Z,8.00
2022-11-26T08:03:15.484Z,8.10
2022-11-26T08:08:20.058Z,8.10
2022-11-26T08:13:23.305Z,8.10
2022-11-26T08:18:26.506Z,8.20
2022-11-26T08:23:31.838Z,8.30
2022-11-26T08:28:35.121Z,8.20
2022-11-26T08:33:39.404Z,8.30
2022-11-26T08:38:44.003Z,8.40
2022-11-26T08:49:15.138Z,8.50
2022-11-26T08:54:19.869Z,8.60
2022-11-26T08:59:24.311Z,8.60
2022-11-26T09:04:27.585Z,8.70
2022-11-26T09:09:32.105Z,8.70
2022-11-26T09:14:37.383Z,8.60
2022-11-26T09:19:40.856Z,8.70
2022-11-26T09:24:45.272Z,8.60
2022-11-26T09:29:48.417Z,8.60
2022-11-26T09:34:52.360Z,8.80
2022-11-26T09:39:56.830Z,8.60
2022-11-26T09:45:08.755Z,8.70
2022-11-26T09:50:22.279Z,8.60
2022-11-26T09:55:29.333Z,8.50
2022-11-26T10:00:35.048Z,8.60
2022-11-26T10:05:43.234Z,8.50
2022-11-26T10:10:54.727Z,8.30
2022-11-26T10:16:07.109Z,8.30
2022-11-26T10:21:37.910Z,8.30
2022-11-26T10:26:48.913Z,8.30
2022-11-26T10:31:56.902Z,8.50
2022-11-26T10:37:00.186Z,8.40
2022-11-26T10:42:13.480Z,8.40
2022-11-26T10:47:23.195Z,8.50
2022-11-26T10:52:28.835Z,8.30
2022-11-26T10:57:35.144Z,8.40
2022-11-26T11:02:41.239Z,8.40
2022-11-26T11:07:44.595Z,8.50
2022-11-26T11:12:50.995Z,8.50
2022-11-26T11:17:58.043Z,8.50
2022-11-26T11:23:20.362Z,8.50
2022-11-26T11:28:27.917Z,8.60
2022-11-26T11:33:31.822Z,8.60
2022-11-26T11:38:47.713Z,8.60
2022-11-26T11:43:57.328Z,8.50
2022-11-26T11:49:15.069Z,8.50
2022-11-26T11:54:22.410Z,8.50
2022-11-26T12:00:09.517Z,8.60
2022-11-26T12:05:53.604Z,8.70
2022-11-26T12:11:10.147Z,8.60
2022-11-26T12:16:17.028Z,8.70
2022-11-26T12:21:30.904Z,8.80
2022-11-26T12:26:38.446Z,8.70
2022-11-26T12:31:47.119Z,8.90
2022-11-26T12:36:56.504Z,8.80
2022-11-26T12:42:04.180Z,8.60
2022-11-26T12:47:17.251Z,8.40
2022-11-26T12:52:31.169Z,8.40
2022-11-26T12:57:38.249Z,8.40
2022-11-26T13:02:46.649Z,8.40
2022-11-26T13:08:13.532Z,8.30
2022-11-26T13:13:22.919Z,8.30
2022-11-26T13:18:33.578Z,8.30
2022-11-26T13:23:54.095Z,8.30
2022-11-26T13:29:18.575Z,8.20
2022-11-26T13:34:36.813Z,8.30
2022-11-26T13:39:56.345Z,8.10
2022-11-26T13:45:12.967Z,8.20
2022-11-26T13:50:23.649Z,8.20
2022-11-26T13:55:31.728Z,8.10
2022-11-26T14:00:36.371Z,8.10
2022-11-26T14:06:09.202Z,8.10
2022-11-26T14:11:33.645Z,8.00
2022-11-26T14:17:13.381Z,8.10
2022-11-26T14:22:27.781Z,8.00
2022-11-26T14:27:33.655Z,8.00
2022-11-26T14:32:43.142Z,7.90
2022-11-26T14:37:52.567Z,7.90
2022-11-26T14:43:13.277Z,7.80
2022-11-26T14:48:24.537Z,7.80
2022-11-26T14:53:31.839Z,7.80
2022-11-26T14:58:39.472Z,7.80
2022-11-26T15:03:53.941Z,7.70
2022-11-26T15:09:15.176Z,7.70
2022-11-26T15:14:25.649Z,7.60
2022-11-26T15:19:32.691Z,7.60
2022-11-26T15:24:36.729Z,7.60
2022-11-26T15:29:42.708Z,7.60
2022-11-26T15:34:47.506Z,7.70
2022-11-26T15:40:10.472Z,7.60
2022-11-26T15:45:15.133Z,7.60
2022-11-26T15:50:28.894Z,7.60
2022-11-26T15:55:36.534Z,7.60
2022-11-26T16:00:41.762Z,7.60
2022-11-26T16:05:54.312Z,7.60
2022-11-26T16:11:05.181Z,7.50
2022-11-26T16:16:14.513Z,7.50
2022-11-26T16:21:24.390Z,7.40
2022-11-26T16:26:28.523Z,7.40
2022-11-26T16:31:32.393Z,7.30
2022-11-26T16:36:42.157Z,7.20
2022-11-26T16:41:45.421Z,7.20
2022-11-26T16:46:51.976Z,7.10
2022-11-26T16:51:56.577Z,7.20
2022-11-26T16:56:59.816Z,7.20
2022-11-26T17:02:03.100Z,7.30
2022-11-26T17:07:08.727Z,7.30
2022-11-26T17:12:16.169Z,7.30
2022-11-26T17:17:23.962Z,7.40
2022-11-26T17:22:29.925Z,7.30
2022-11-26T17:27:33.296Z,7.30
2022-11-26T17:32:36.495Z,7.30
2022-11-26T17:37:41.731Z,7.40
2022-11-26T17:42:45.201Z,7.30
2022-11-26T17:47:48.598Z,7.40
2022-11-26T17:52:54.545Z,7.30
2022-11-26T17:57:58.401Z,7.30
2022-11-26T18:03:01.741Z,7.30
2022-11-26T18:08:06.520Z,7.30
2022-11-26T18:13:09.687Z,7.30
2022-11-26T18:18:12.876Z,7.40
2022-11-26T18:23:17.709Z,7.40
2022-11-26T18:28:21.032Z,7.30
2022-11-26T18:33:24.182Z,7.30
2022-11-26T18:38:31.370Z,7.30
2022-11-26T18:43:36.847Z,7.30
2022-11-26T18:48:40.218Z,7.30
2022-11-26T18:53:46.040Z,7.30
2022-11-26T18:58:50.426Z,7.30
2022-11-26T19:03:54.544Z,7.30
2022-11-26T19:09:01.910Z,7.30
2022-11-26T19:14:05.101Z,7.30
2022-11-26T19:19:08.507Z,7.30
2022-11-26T19:24:13.225Z,7.30
2022-11-26T19:29:16.376Z,7.30
2022-11-26T19:34:19.576Z,7.30
2022-11-26T19:39:24.357Z,7.30
2022-11-26T19:44:27.629Z,7.40
2022-11-26T19:49:30.933Z,7.40
2022-11-26T19:54:35.906Z,7.30
2022-11-26T19:59:39.972Z,7.40
2022-11-26T20:04:43.575Z,7.30
2022-11-26T20:09:50.917Z,7.30
2022-11-26T20:14:54.119Z,7.30
2022-11-26T20:19:57.615Z,7.30
2022-11-26T20:32:12.694Z,7.30
2022-11-26T20:37:23.021Z,7.30
2022-11-26T20:42:26.179Z,7.30
2022-11-26T20:47:30.755Z,7.30
2022-11-26T20:52:34.303Z,7.30
2022-11-26T20:57:37.799Z,7.20
2022-11-26T21:02:42.550Z,7.40
2022-11-26T21:07:46.045Z,7.40
2022-11-26T21:12:49.571Z,7.30
2022-11-26T21:17:54.073Z,7.30
2022-11-26T21:22:57.238Z,7.30
2022-11-26T21:28:00.483Z,7.30
2022-11-26T21:33:09.299Z,7.30
2022-11-26T21:38:12.949Z,7.30
2022-11-26T21:43:16.094Z,7.30
2022-11-26T21:48:20.688Z,7.30
2022-11-26T21:53:24.580Z,7.40
2022-11-26T21:58:27.921Z,7.40
2022-11-26T22:03:35.000Z,7.30
2022-11-26T22:08:39.295Z,7.40
2022-11-26T22:13:42.618Z,7.30
2022-11-26T22:18:47.758Z,7.30
2022-11-26T22:23:51.503Z,7.30
2022-11-26T22:28:55.772Z,7.20
2022-11-26T22:34:02.354Z,7.20
2022-11-26T22:39:11.015Z,7.20
2022-11-26T22:44:15.708Z,7.20
2022-11-26T22:49:22.124Z,7.30
2022-11-26T22:54:25.585Z,7.20
2022-11-26T22:59:29.378Z,7.10
2022-11-26T23:04:34.475Z,7.10
2022-11-26T23:09:39.417Z,7.20
2022-11-26T23:14:45.560Z,7.20
2022-11-26T23:19:50.264Z,7.20
2022-11-26T23:24:53.367Z,7.10
2022-11-26T23:29:58.134Z,7.00
2022-11-26T23:35:03.002Z,6.70
2022-11-26T23:40:07.943Z,6.60
2022-11-26T23:45:11.536Z,6.50
2022-11-26T23:50:16.181Z,6.50
2022-11-26T23:55:34.622Z,6.40
